createdAt,value
2023-05-08T00:00:21.497Z,67.43
2023-05-08T00:03:43.484Z,67.43
2023-05-08T00:06:45.971Z,67.49
2023-05-08T00:09:47.551Z,67.34
2023-05-08T00:12:49.330Z,67.27
2023-05-08T00:15:51.037Z,67.18
2023-05-08T00:18:53.599Z,67.23
2023-05-08T00:21:55.321Z,67.10
2023-05-08T00:24:56.988Z,66.92
2023-05-08T00:27:59.912Z,66.76
2023-05-08T00:31:02.009Z,66.79
2023-05-08T00:34:03.834Z,66.74
2023-05-08T00:37:05.618Z,66.60
2023-05-08T00:40:09.321Z,66.48
2023-05-08T00:43:11.080Z,66.50
2023-05-08T00:46:13.105Z,66.23
2023-05-08T00:49:15.625Z,66.03
2023-05-08T00:52:18.724Z,66.23
2023-05-08T00:55:20.684Z,66.11
2023-05-08T00:58:25.268Z,65.99
2023-05-08T01:01:27.036Z,66.07
2023-05-08T01:04:30.016Z,66.20
2023-05-08T01:07:32.191Z,66.28
2023-05-08T01:10:45.992Z,66.48
2023-05-08T01:13:50.836Z,66.60
2023-05-08T01:17:14.083Z,66.35
2023-05-08T01:20:31.566Z,66.10
2023-05-08T01:24:10.560Z,66.06
2023-05-08T01:27:33.851Z,66.03
2023-05-08T01:30:41.595Z,66.30
2023-05-08T01:33:56.729Z,66.55
2023-05-08T01:37:06.125Z,66.83
2023-05-08T01:40:17.531Z,67.03
2023-05-08T01:43:25.224Z,67.21
2023-05-08T01:46:31.663Z,67.41
2023-05-08T01:49:39.508Z,67.57
2023-05-08T01:52:48.469Z,67.70
2023-05-08T01:55:54.018Z,67.82
2023-05-08T01:58:58.553Z,67.93
2023-05-08T02:02:02.161Z,68.00
2023-05-08T02:05:06.206Z,67.91
2023-05-08T02:08:10.667Z,67.99
2023-05-08T02:11:14.381Z,68.12
2023-05-08T02:14:19.017Z,68.19
2023-05-08T02:17:24.058Z,68.20
2023-05-08T02:20:27.228Z,68.21
2023-05-08T02:23:30.674Z,68.10
2023-05-08T02:26:34.392Z,67.98
2023-05-08T02:29:37.180Z,67.88
2023-05-08T02:32:41.933Z,67.68
2023-05-08T02:35:45.642Z,67.40
2023-05-08T02:38:52.194Z,67.04
2023-05-08T02:41:54.078Z,66.92
2023-05-08T02:44:56.069Z,66.78
2023-05-08T02:48:11.579Z,66.87
2023-05-08T02:51:13.260Z,66.59
2023-05-08T02:54:28.667Z,66.46
2023-05-08T02:57:46.222Z,66.26
2023-05-08T03:01:05.866Z,66.13
2023-05-08T03:04:10.296Z,66.12
2023-05-08T03:07:12.443Z,66.18
2023-05-08T03:10:16.080Z,66.30
2023-05-08T03:13:20.200Z,66.25
2023-05-08T03:16:25.002Z,66.10
2023-05-08T03:19:32.977Z,66.03
2023-05-08T03:22:38.053Z,66.04
2023-05-08T03:25:41.410Z,65.99
2023-05-08T03:28:43.992Z,65.93
2023-05-08T03:31:46.716Z,65.94
2023-05-08T03:34:50.207Z,65.98
2023-05-08T03:37:53.117Z,65.93
2023-05-08T03:40:55.044Z,66.09
2023-05-08T03:43:58.102Z,66.12
2023-05-08T03:47:01.877Z,66.11
2023-05-08T03:50:04.502Z,66.07
2023-05-08T03:53:07.465Z,66.02
2023-05-08T03:56:09.471Z,65.97
2023-05-08T03:59:21.676Z,65.99
2023-05-08T04:02:42.144Z,65.98
2023-05-08T04:05:57.154Z,66.11
2023-05-08T04:09:07.893Z,66.16
2023-05-08T04:12:21.269Z,66.12
2023-05-08T04:15:29.309Z,66.16
2023-05-08T04:18:36.056Z,66.11
2023-05-08T04:21:42.358Z,66.10
2023-05-08T04:24:48.583Z,66.07
2023-05-08T04:27:52.565Z,66.07
2023-05-08T04:30:56.378Z,65.98
2023-05-08T04:33:58.618Z,66.00
2023-05-08T04:37:00.476Z,65.96
2023-05-08T04:40:04.338Z,66.00
2023-05-08T04:43:06.618Z,66.01
2023-05-08T04:46:08.568Z,66.11
2023-05-08T04:49:11.297Z,66.13
2023-05-08T04:52:13.052Z,66.16
2023-05-08T04:55:15.145Z,66.25
2023-05-08T04:58:17.048Z,66.25
2023-05-08T05:01:18.841Z,66.22
2023-05-08T05:04:21.627Z,66.25
2023-05-08T05:07:23.619Z,66.29
2023-05-08T05:10:25.459Z,66.27
2023-05-08T05:13:27.555Z,66.21
2023-05-08T05:16:29.855Z,66.26
2023-05-08T05:19:31.867Z,66.28
2023-05-08T05:22:34.153Z,66.41
2023-05-08T05:25:36.058Z,66.35
2023-05-08T05:28:37.839Z,66.29
2023-05-08T05:31:40.866Z,66.15
2023-05-08T05:34:42.703Z,65.96
2023-05-08T05:37:44.729Z,65.92
2023-05-08T05:40:46.778Z,65.69
2023-05-08T05:43:48.638Z,65.64
2023-05-08T05:46:50.492Z,65.59
2023-05-08T05:49:52.339Z,65.49
2023-05-08T05:52:54.562Z,65.45
2023-05-08T05:55:56.384Z,65.63
2023-05-08T05:58:58.124Z,65.61
2023-05-08T06:02:00.786Z,65.62
2023-05-08T06:05:04.263Z,65.38
2023-05-08T06:08:07.862Z,65.27
2023-05-08T06:11:09.588Z,65.02
2023-05-08T06:14:11.317Z,65.08
2023-05-08T06:17:13.627Z,65.16
2023-05-08T06:20:15.694Z,65.23
2023-05-08T06:23:17.405Z,65.42
2023-05-08T06:26:20.137Z,65.37
2023-05-08T06:29:22.679Z,65.27
2023-05-08T06:32:24.465Z,65.29
2023-05-08T06:35:26.272Z,65.08
2023-05-08T06:38:28.021Z,65.02
2023-05-08T06:41:29.802Z,64.87
2023-05-08T06:44:32.402Z,64.77
2023-05-08T06:47:34.099Z,64.74
2023-05-08T06:50:40.129Z,64.80
2023-05-08T06:53:42.187Z,64.96
2023-05-08T06:56:44.304Z,65.09
2023-05-08T06:59:45.966Z,65.13
2023-05-08T07:02:47.803Z,65.24
2023-05-08T07:05:49.537Z,65.19
2023-05-08T07:08:51.186Z,65.14
2023-05-08T07:11:53.092Z,65.04
2023-05-08T07:14:55.888Z,64.95
2023-05-08T07:17:59.274Z,64.61
2023-05-08T07:21:00.964Z,64.48
2023-05-08T07:24:02.697Z,64.49
2023-05-08T07:27:04.425Z,64.41
2023-05-08T07:30:09.440Z,64.43
2023-05-08T07:33:14.138Z,64.56
2023-05-08T07:36:16.243Z,64.59
2023-05-08T07:39:19.368Z,64.55
2023-05-08T07:42:21.927Z,64.43
2023-05-08T07:45:23.757Z,63.96
2023-05-08T07:48:25.677Z,63.56
2023-05-08T07:51:27.472Z,63.26
2023-05-08T07:54:29.185Z,63.35
2023-05-08T07:57:38.309Z,63.36
2023-05-08T08:00:40.347Z,63.13
2023-05-08T08:03:42.217Z,63.27
2023-05-08T08:06:44.116Z,63.04
2023-05-08T08:09:46.423Z,63.15
2023-05-08T08:12:48.250Z,62.81
2023-05-08T08:15:51.367Z,62.82
2023-05-08T08:18:53.219Z,62.75
2023-05-08T08:21:55.025Z,62.72
2023-05-08T08:24:57.059Z,62.51
2023-05-08T08:27:59.518Z,62.37
2023-05-08T08:31:01.312Z,62.72
2023-05-08T08:34:03.750Z,62.22
2023-05-08T08:37:06.316Z,61.68
2023-05-08T08:40:08.524Z,61.72
2023-05-08T08:43:10.581Z,61.63
2023-05-08T08:46:14.692Z,61.37
2023-05-08T08:49:31.517Z,61.30
2023-05-08T08:52:46.957Z,61.11
2023-05-08T08:55:51.854Z,61.68
2023-05-08T08:58:58.567Z,60.90
2023-05-08T09:02:06.529Z,60.69
2023-05-08T09:05:09.344Z,60.48
2023-05-08T09:08:12.297Z,60.40
2023-05-08T09:11:14.421Z,59.83
2023-05-08T09:14:16.426Z,59.85
2023-05-08T09:17:18.425Z,59.75
2023-05-08T09:20:21.040Z,59.00
2023-05-08T09:23:23.425Z,58.03
2023-05-08T09:26:29.168Z,58.35
2023-05-08T09:29:31.160Z,58.63
2023-05-08T09:39:25.450Z,57.23
2023-05-08T09:42:38.910Z,56.35
2023-05-08T09:45:42.846Z,55.54
2023-05-08T09:48:46.183Z,54.68
2023-05-08T09:51:56.092Z,54.75
2023-05-08T09:55:06.456Z,55.08
2023-05-08T09:58:10.038Z,54.46
2023-05-08T10:01:36.241Z,53.78
2023-05-08T10:04:39.757Z,53.55
2023-05-08T10:07:43.120Z,52.64
2023-05-08T10:10:49.215Z,52.17
2023-05-08T10:13:52.584Z,52.00
2023-05-08T10:16:58.152Z,51.35
2023-05-08T10:20:07.820Z,51.20
2023-05-08T10:23:17.318Z,51.62
2023-05-08T10:26:27.701Z,51.42
2023-05-08T10:29:42.160Z,50.73
2023-05-08T10:32:49.728Z,50.72
2023-05-08T10:35:53.542Z,50.89
2023-05-08T10:38:59.075Z,51.02
2023-05-08T10:42:03.169Z,50.30
2023-05-08T10:45:07.725Z,50.99
2023-05-08T10:48:26.831Z,50.17
2023-05-08T10:51:37.580Z,49.26
2023-05-08T10:55:20.580Z,48.21
2023-05-08T10:58:24.396Z,48.71
2023-05-08T11:01:28.599Z,48.97
2023-05-08T11:04:32.591Z,49.53
2023-05-08T11:07:58.161Z,49.10
2023-05-08T11:11:02.175Z,48.42
2023-05-08T11:14:08.686Z,48.30
2023-05-08T11:17:12.085Z,49.26
2023-05-08T11:20:15.747Z,48.48
2023-05-08T11:23:27.489Z,48.36
2023-05-08T11:26:43.216Z,47.99
2023-05-08T11:30:24.911Z,47.01
2023-05-08T11:33:33.192Z,45.52
2023-05-08T11:36:37.008Z,45.81
2023-05-08T11:39:40.568Z,46.71
2023-05-08T11:42:43.822Z,46.00
2023-05-08T11:45:47.362Z,46.56
2023-05-08T11:49:01.554Z,47.04
2023-05-08T11:52:06.468Z,46.20
2023-05-08T11:55:12.286Z,45.41
2023-05-08T11:58:16.624Z,45.87
2023-05-08T12:01:21.041Z,45.49
2023-05-08T12:04:24.391Z,44.80
2023-05-08T12:07:28.005Z,44.53
2023-05-08T12:10:31.665Z,44.98
2023-05-08T12:13:35.165Z,45.23
2023-05-08T12:16:40.668Z,45.69
2023-05-08T12:19:44.094Z,44.11
2023-05-08T12:22:52.559Z,43.52
2023-05-08T12:25:59.654Z,43.72
2023-05-08T12:29:05.476Z,43.99
2023-05-08T12:32:08.911Z,45.18
2023-05-08T12:35:14.616Z,44.60
2023-05-08T12:38:18.008Z,44.87
2023-05-08T12:41:24.686Z,45.09
2023-05-08T12:44:28.422Z,44.58
2023-05-08T12:47:31.871Z,44.69
2023-05-08T12:50:40.700Z,44.06
2023-05-08T12:53:46.495Z,44.05
2023-05-08T12:56:50.738Z,44.28
2023-05-08T13:00:04.996Z,44.04
2023-05-08T13:03:10.034Z,43.76
2023-05-08T13:06:21.529Z,44.26
2023-05-08T13:09:24.927Z,44.50
2023-05-08T13:12:28.333Z,43.80
2023-05-08T13:15:31.618Z,43.78
2023-05-08T13:18:37.947Z,44.06
2023-05-08T13:21:41.640Z,43.81
2023-05-08T13:24:45.263Z,43.68
2023-05-08T13:27:48.646Z,43.32
2023-05-08T13:30:51.941Z,43.94
2023-05-08T13:33:55.253Z,43.21
2023-05-08T13:36:58.854Z,43.22
2023-05-08T13:40:02.561Z,42.90
2023-05-08T13:43:05.968Z,43.05
2023-05-08T13:46:09.477Z,42.82
2023-05-08T13:49:13.046Z,42.36
2023-05-08T13:52:17.069Z,42.78
2023-05-08T13:55:22.306Z,42.57
2023-05-08T13:58:25.695Z,43.16
2023-05-08T14:01:29.042Z,43.01
2023-05-08T14:04:32.440Z,43.81
2023-05-08T14:07:36.325Z,43.53
2023-05-08T14:10:40.853Z,43.35
2023-05-08T14:13:44.234Z,43.19
2023-05-08T14:16:48.630Z,43.53
2023-05-08T14:19:51.986Z,43.62
2023-05-08T14:22:59.582Z,43.73
2023-05-08T14:26:03.510Z,43.29
2023-05-08T14:29:06.722Z,43.16
2023-05-08T14:32:11.175Z,43.68
2023-05-08T14:35:14.757Z,44.11
2023-05-08T14:38:18.317Z,44.00
2023-05-08T14:41:22.085Z,43.76
2023-05-08T14:44:25.303Z,43.78
2023-05-08T14:47:28.664Z,43.84
2023-05-08T14:50:31.923Z,44.02
2023-05-08T14:53:35.297Z,43.84
2023-05-08T14:56:47.274Z,43.72
2023-05-08T15:03:14.355Z,44.06
2023-05-08T15:06:17.622Z,43.94
2023-05-08T15:09:20.869Z,43.81
2023-05-08T15:12:24.124Z,43.91
2023-05-08T15:15:27.513Z,43.79
2023-05-08T15:18:30.787Z,43.87
2023-05-08T15:21:34.561Z,44.37
2023-05-08T15:24:37.845Z,44.81
2023-05-08T15:27:41.850Z,44.20
2023-05-08T15:30:48.476Z,44.14
2023-05-08T15:33:51.851Z,44.48
2023-05-08T15:36:55.060Z,44.42
2023-05-08T15:39:58.242Z,44.26
2023-05-08T15:43:01.730Z,44.46
2023-05-08T15:46:05.325Z,44.38
2023-05-08T15:49:08.613Z,44.21
2023-05-08T15:52:11.954Z,44.46
2023-05-08T15:55:15.500Z,44.43
2023-05-08T15:58:18.966Z,44.33
2023-05-08T16:01:22.192Z,44.37
2023-05-08T16:04:25.596Z,44.42
2023-05-08T16:07:29.029Z,44.70
2023-05-08T16:10:32.238Z,44.50
2023-05-08T16:13:35.567Z,44.58
2023-05-08T16:16:39.486Z,44.44
2023-05-08T16:19:42.907Z,44.43
2023-05-08T16:22:46.476Z,44.56
2023-05-08T16:25:49.856Z,44.62
2023-05-08T16:28:53.263Z,44.56
2023-05-08T16:31:56.668Z,45.03
2023-05-08T16:35:00.111Z,44.90
2023-05-08T16:38:05.023Z,45.14
2023-05-08T16:41:10.244Z,45.39
2023-05-08T16:44:13.635Z,45.44
2023-05-08T16:47:17.306Z,45.49
2023-05-08T16:50:20.884Z,45.61
2023-05-08T16:53:27.083Z,45.26
2023-05-08T16:56:30.243Z,45.31
2023-05-08T16:59:33.556Z,45.39
2023-05-08T17:02:37.018Z,45.32
2023-05-08T17:05:40.973Z,45.57
2023-05-08T17:08:43.998Z,46.01
2023-05-08T17:11:47.047Z,46.26
2023-05-08T17:14:50.012Z,46.59
2023-05-08T17:17:53.197Z,46.48
2023-05-08T17:20:56.164Z,46.39
2023-05-08T17:24:00.757Z,46.38
2023-05-08T17:27:07.735Z,46.49
2023-05-08T17:30:12.241Z,46.31
2023-05-08T17:33:15.596Z,46.25
2023-05-08T17:36:18.554Z,46.52
2023-05-08T17:39:22.023Z,46.73
2023-05-08T17:42:25.004Z,46.71
2023-05-08T17:45:28.227Z,46.87
2023-05-08T17:48:31.412Z,46.80
2023-05-08T17:51:34.531Z,47.09
2023-05-08T17:54:37.655Z,47.13
2023-05-08T17:57:40.717Z,47.38
2023-05-08T18:00:43.929Z,47.80
2023-05-08T18:03:49.951Z,48.38
2023-05-08T18:06:53.023Z,48.52
2023-05-08T18:09:56.296Z,48.80
2023-05-08T18:12:59.356Z,49.05
2023-05-08T18:16:02.518Z,49.52
2023-05-08T18:19:05.610Z,49.83
2023-05-08T18:22:08.640Z,50.11
2023-05-08T18:25:12.183Z,50.79
2023-05-08T18:28:15.180Z,50.91
2023-05-08T18:31:18.237Z,51.16
2023-05-08T18:34:21.256Z,51.47
2023-05-08T18:37:24.351Z,51.65
2023-05-08T18:40:27.345Z,52.02
2023-05-08T18:43:30.628Z,51.99
2023-05-08T18:46:33.658Z,52.31
2023-05-08T18:49:36.747Z,52.51
2023-05-08T18:52:40.745Z,52.73
2023-05-08T18:55:43.876Z,52.96
2023-05-08T18:58:47.628Z,53.33
2023-05-08T19:01:51.225Z,53.48
2023-05-08T19:04:54.538Z,53.54
2023-05-08T19:07:58.001Z,53.62
2023-05-08T19:11:01.015Z,53.94
2023-05-08T19:14:04.093Z,54.11
2023-05-08T19:17:07.175Z,54.40
2023-05-08T19:20:11.027Z,54.68
2023-05-08T19:23:14.074Z,54.75
2023-05-08T19:26:18.119Z,54.85
2023-05-08T19:29:21.100Z,55.00
2023-05-08T19:32:25.838Z,55.18
2023-05-08T19:35:29.157Z,55.23
2023-05-08T19:38:32.125Z,55.09
2023-05-08T19:41:35.572Z,55.22
2023-05-08T19:44:39.130Z,55.49
2023-05-08T19:47:42.640Z,55.53
2023-05-08T19:50:45.901Z,55.59
2023-05-08T19:53:48.922Z,55.72
2023-05-08T19:56:51.965Z,56.04
2023-05-08T19:59:56.043Z,56.21
2023-05-08T20:02:59.146Z,56.19
2023-05-08T20:06:02.276Z,56.27
2023-05-08T20:09:06.355Z,56.37
2023-05-08T20:12:09.436Z,56.66
2023-05-08T20:15:12.698Z,57.01
2023-05-08T20:18:16.128Z,56.79
2023-05-08T20:21:19.237Z,56.79
2023-05-08T20:24:22.279Z,56.96
2023-05-08T20:27:25.315Z,57.18
2023-05-08T20:30:28.439Z,57.42
2023-05-08T20:33:31.472Z,57.53
2023-05-08T20:36:34.611Z,57.60
2023-05-08T20:39:37.576Z,57.70
2023-05-08T20:42:41.449Z,57.83
2023-05-08T20:45:44.727Z,57.99
2023-05-08T20:48:47.830Z,58.20
2023-05-08T20:51:50.783Z,58.26
2023-05-08T20:54:53.809Z,58.28
2023-05-08T20:57:56.935Z,58.39
2023-05-08T21:01:00.024Z,58.50
2023-05-08T21:04:03.096Z,58.67
2023-05-08T21:07:06.270Z,58.85
2023-05-08T21:10:09.624Z,58.73
2023-05-08T21:13:12.651Z,58.90
2023-05-08T21:16:15.774Z,58.93
2023-05-08T21:19:18.783Z,59.12
2023-05-08T21:22:21.772Z,59.15
2023-05-08T21:25:24.901Z,59.19
2023-05-08T21:28:27.890Z,59.25
2023-05-08T21:31:37.014Z,59.26
2023-05-08T21:34:41.512Z,59.19
2023-05-08T21:37:44.541Z,59.32
2023-05-08T21:40:47.576Z,59.29
2023-05-08T21:43:50.727Z,59.37
2023-05-08T21:46:53.809Z,59.62
2023-05-08T21:49:57.425Z,59.73
2023-05-08T21:53:00.389Z,59.86
2023-05-08T21:56:03.512Z,59.98
2023-05-08T21:59:07.668Z,60.02
2023-05-08T22:02:11.229Z,60.01
2023-05-08T22:05:14.692Z,60.05
2023-05-08T22:08:18.277Z,60.08
2023-05-08T22:11:22.389Z,60.27
2023-05-08T22:14:25.578Z,60.33
2023-05-08T22:17:28.878Z,60.46
2023-05-08T22:20:32.183Z,60.45
2023-05-08T22:23:35.758Z,60.46
2023-05-08T22:26:38.978Z,60.54
2023-05-08T22:29:42.083Z,60.63
2023-05-08T22:32:54.428Z,60.63
2023-05-08T22:35:58.316Z,60.72
2023-05-08T22:39:01.699Z,60.54
2023-05-08T22:42:05.409Z,60.76
2023-05-08T22:45:57.777Z,60.79
2023-05-08T22:49:11.551Z,60.83
2023-05-08T22:52:14.860Z,60.84
2023-05-08T22:55:18.183Z,60.69
2023-05-08T22:58:21.483Z,60.72
2023-05-08T23:01:24.877Z,60.93
2023-05-08T23:04:28.196Z,61.03
2023-05-08T23:07:31.499Z,61.10
2023-05-08T23:10:34.731Z,61.11
2023-05-08T23:13:38.019Z,61.16
2023-05-08T23:16:41.398Z,61.10
2023-05-08T23:19:45.691Z,61.13
2023-05-08T23:22:48.905Z,61.13
2023-05-08T23:25:52.291Z,61.17
2023-05-08T23:28:55.332Z,61.28
2023-05-08T23:31:58.391Z,61.27
2023-05-08T23:35:01.654Z,61.27
2023-05-08T23:38:04.708Z,61.37
2023-05-08T23:41:08.006Z,61.40
2023-05-08T23:44:11.033Z,61.48
2023-05-08T23:47:13.976Z,61.52
2023-05-08T23:50:17.244Z,61.42
2023-05-08T23:53:20.734Z,61.49
2023-05-08T23:56:23.852Z,61.48
2023-05-08T23:59:26.813Z,61.46
